createdAt,value
2017-07-02T00:01:54.937Z,87.86
2017-07-02T00:04:27.301Z,87.82
2017-07-02T00:06:59.700Z,87.85
2017-07-02T00:09:32.148Z,87.58
2017-07-02T00:12:04.481Z,87.12
2017-07-02T00:14:36.717Z,87.38
2017-07-02T00:17:09.197Z,87.32
2017-07-02T00:19:41.586Z,87.25
2017-07-02T00:22:13.881Z,87.00
2017-07-02T00:24:46.209Z,86.86
2017-07-02T00:27:18.685Z,86.98
2017-07-02T00:29:51.045Z,87.10
2017-07-02T00:32:23.529Z,87.05
2017-07-02T00:34:56.056Z,87.23
2017-07-02T00:37:28.149Z,87.31
2017-07-02T00:40:00.477Z,87.51
2017-07-02T00:42:32.957Z,87.28
2017-07-02T00:45:05.268Z,87.51
2017-07-02T00:47:37.580Z,87.99
2017-07-02T00:50:10.017Z,88.15
2017-07-02T00:52:42.541Z,88.40
2017-07-02T00:55:14.961Z,88.79
2017-07-02T00:57:47.469Z,88.90
2017-07-02T01:00:19.848Z,89.13
2017-07-02T01:02:53.193Z,89.17
2017-07-02T01:05:25.511Z,89.42
2017-07-02T01:07:57.905Z,89.65
2017-07-02T01:10:30.342Z,89.88
2017-07-02T01:13:02.985Z,90.05
2017-07-02T01:15:35.201Z,89.91
2017-07-02T01:18:07.568Z,89.93
2017-07-02T01:20:40.147Z,90.45
2017-07-02T01:23:12.303Z,90.65
2017-07-02T01:25:44.540Z,90.37
2017-07-02T01:28:18.188Z,90.27
2017-07-02T01:30:50.424Z,89.85
2017-07-02T01:33:22.783Z,89.57
2017-07-02T01:35:55.055Z,89.32
2017-07-02T01:38:27.988Z,89.05
2017-07-02T01:40:59.916Z,88.93
2017-07-02T01:43:32.348Z,89.09
2017-07-02T01:46:05.517Z,89.21
2017-07-02T01:48:37.924Z,89.11
2017-07-02T01:51:10.341Z,89.10
2017-07-02T01:53:42.604Z,89.00
2017-07-02T01:56:14.943Z,88.69
2017-07-02T01:58:47.307Z,88.57
2017-07-02T02:01:31.972Z,88.29
2017-07-02T02:04:04.080Z,88.19
2017-07-02T02:06:36.441Z,88.45
2017-07-02T02:09:08.228Z,88.18
2017-07-02T02:11:40.584Z,88.52
2017-07-02T02:14:13.163Z,88.49
2017-07-02T02:16:45.460Z,88.78
2017-07-02T02:19:17.868Z,88.74
2017-07-02T02:21:50.264Z,88.48
2017-07-02T02:24:22.628Z,88.60
2017-07-02T02:26:54.962Z,88.54
2017-07-02T02:29:27.436Z,88.73
2017-07-02T02:31:59.824Z,88.68
2017-07-02T02:34:32.209Z,88.95
2017-07-02T02:37:04.656Z,88.79
2017-07-02T02:39:37.866Z,88.67
2017-07-02T02:42:10.343Z,88.84
2017-07-02T02:44:42.725Z,88.79
2017-07-02T02:47:15.068Z,88.74
2017-07-02T02:49:47.462Z,88.57
2017-07-02T02:52:19.861Z,88.57
2017-07-02T02:54:52.404Z,88.50
2017-07-02T02:57:24.429Z,88.95
2017-07-02T02:59:56.848Z,88.99
2017-07-02T03:02:29.187Z,89.14
2017-07-02T03:05:01.816Z,89.45
2017-07-02T03:07:33.872Z,89.49
2017-07-02T03:10:06.245Z,89.96
2017-07-02T03:12:38.588Z,90.30
2017-07-02T03:15:11.015Z,90.58
2017-07-02T03:17:43.443Z,90.47
2017-07-02T03:20:15.873Z,90.69
2017-07-02T03:22:48.225Z,91.01
2017-07-02T03:25:20.536Z,91.14
2017-07-02T03:27:53.817Z,90.90
2017-07-02T03:30:26.306Z,90.88
2017-07-02T03:32:58.724Z,91.26
2017-07-02T03:35:31.226Z,91.07
2017-07-02T03:38:03.136Z,91.05
2017-07-02T03:40:35.496Z,90.78
2017-07-02T03:43:07.816Z,90.61
2017-07-02T03:45:40.192Z,90.12
2017-07-02T03:48:12.792Z,90.00
2017-07-02T03:50:44.828Z,90.06
2017-07-02T03:53:17.216Z,89.85
2017-07-02T03:55:49.589Z,89.76
2017-07-02T03:58:22.068Z,89.67
2017-07-02T04:00:54.500Z,89.56
2017-07-02T04:03:27.361Z,89.06
2017-07-02T04:05:59.232Z,88.81
2017-07-02T04:08:32.526Z,88.37
2017-07-02T04:11:04.931Z,87.80
2017-07-02T04:13:37.349Z,87.83
2017-07-02T04:16:09.809Z,87.35
2017-07-02T04:18:42.314Z,87.38
2017-07-02T04:21:14.760Z,87.60
2017-07-02T04:23:47.209Z,87.76
2017-07-02T04:26:19.575Z,87.61
2017-07-02T04:28:52.059Z,87.15
2017-07-02T04:31:24.351Z,86.84
2017-07-02T04:33:56.691Z,86.65
2017-07-02T04:36:29.231Z,86.41
2017-07-02T04:39:01.462Z,86.68
2017-07-02T04:41:33.927Z,87.00
2017-07-02T04:44:06.168Z,86.66
2017-07-02T04:46:38.510Z,86.01
2017-07-02T04:49:11.260Z,85.77
2017-07-02T04:51:43.428Z,86.43
2017-07-02T04:54:15.832Z,85.82
2017-07-02T04:56:48.485Z,86.08
2017-07-02T04:59:20.625Z,85.33
2017-07-02T05:01:53.045Z,84.89
2017-07-02T05:04:25.404Z,84.57
2017-07-02T05:06:57.765Z,84.14
2017-07-02T05:09:30.081Z,84.31
2017-07-02T05:12:09.431Z,84.21
2017-07-02T05:14:41.841Z,84.88
2017-07-02T05:17:14.175Z,84.70
2017-07-02T05:19:46.695Z,84.98
2017-07-02T05:22:19.192Z,84.40
2017-07-02T05:24:52.135Z,84.42
2017-07-02T05:27:24.942Z,84.96
2017-07-02T05:29:57.421Z,84.53
2017-07-02T05:32:29.892Z,84.82
2017-07-02T05:35:02.268Z,83.75
2017-07-02T05:37:34.665Z,82.27
2017-07-02T05:40:07.430Z,80.85
2017-07-02T05:42:39.495Z,79.88
2017-07-02T05:45:11.839Z,77.26
2017-07-02T05:47:44.375Z,76.34
2017-07-02T05:50:16.604Z,75.74
2017-07-02T05:52:49.068Z,76.85
2017-07-02T05:55:21.561Z,77.39
2017-07-02T05:57:54.197Z,77.35
2017-07-02T06:00:26.732Z,78.11
2017-07-02T06:02:58.737Z,79.32
2017-07-02T06:05:31.162Z,80.41
2017-07-02T06:08:03.573Z,80.78
2017-07-02T06:10:35.888Z,81.01
2017-07-02T06:13:08.472Z,81.49
2017-07-02T06:15:41.045Z,81.00
2017-07-02T06:18:13.772Z,80.92
2017-07-02T06:20:45.848Z,80.56
2017-07-02T06:23:18.215Z,79.77
2017-07-02T06:25:50.653Z,79.78
2017-07-02T06:28:23.204Z,80.57
2017-07-02T06:30:55.421Z,80.45
2017-07-02T06:33:27.892Z,80.35
2017-07-02T06:36:00.261Z,79.95
2017-07-02T06:38:32.656Z,80.17
2017-07-02T06:41:05.640Z,78.94
2017-07-02T06:43:38.318Z,79.17
2017-07-02T06:46:10.679Z,77.10
2017-07-02T06:48:43.096Z,77.76
2017-07-02T06:51:16.305Z,75.21
2017-07-02T06:53:48.735Z,76.84
2017-07-02T06:56:21.112Z,75.61
2017-07-02T06:58:54.548Z,74.92
2017-07-02T07:01:26.883Z,74.05
2017-07-02T07:03:59.148Z,72.25
2017-07-02T07:06:31.604Z,71.82
2017-07-02T07:09:04.023Z,71.90
2017-07-02T07:11:36.560Z,71.75
2017-07-02T07:14:08.690Z,70.91
2017-07-02T07:16:41.111Z,71.17
2017-07-02T07:19:13.476Z,69.67
2017-07-02T07:21:45.836Z,69.95
2017-07-02T07:24:18.120Z,70.46
2017-07-02T07:26:50.679Z,71.34
2017-07-02T07:29:23.292Z,70.83
2017-07-02T07:31:55.449Z,70.91
2017-07-02T07:34:27.961Z,70.38
2017-07-02T07:37:00.387Z,69.75
2017-07-02T07:39:33.077Z,69.57
2017-07-02T07:42:05.241Z,68.43
2017-07-02T07:44:37.711Z,68.85
2017-07-02T07:47:10.028Z,68.40
2017-07-02T07:49:42.721Z,67.34
2017-07-02T07:52:14.820Z,66.67
2017-07-02T07:54:47.261Z,66.29
2017-07-02T07:57:19.790Z,65.61
2017-07-02T07:59:52.187Z,66.42
2017-07-02T08:02:24.637Z,66.86
2017-07-02T08:04:57.028Z,67.15
2017-07-02T08:07:29.484Z,67.61
2017-07-02T08:10:01.991Z,67.54
2017-07-02T08:12:34.291Z,67.79
2017-07-02T08:15:06.812Z,68.49
2017-07-02T08:17:40.239Z,68.50
2017-07-02T08:20:12.417Z,68.69
2017-07-02T08:22:45.174Z,68.41
2017-07-02T08:25:17.238Z,69.39
2017-07-02T08:27:51.212Z,69.07
2017-07-02T08:30:23.136Z,69.11
2017-07-02T08:32:55.585Z,69.95
2017-07-02T08:35:28.096Z,70.40
2017-07-02T08:38:00.413Z,70.24
2017-07-02T08:40:33.059Z,70.72
2017-07-02T08:43:05.215Z,71.06
2017-07-02T08:45:37.547Z,72.14
2017-07-02T08:48:10.007Z,73.11
2017-07-02T08:50:42.908Z,72.83
2017-07-02T08:53:14.771Z,74.29
2017-07-02T08:55:47.193Z,76.81
2017-07-02T08:58:19.544Z,77.05
2017-07-02T09:00:52.099Z,77.28
2017-07-02T09:03:31.393Z,78.52
2017-07-02T09:06:04.341Z,79.45
2017-07-02T09:08:36.092Z,79.65
2017-07-02T09:11:08.442Z,79.88
2017-07-02T09:13:40.719Z,79.45
2017-07-02T09:16:13.197Z,79.26
2017-07-02T09:18:45.441Z,79.59
2017-07-02T09:21:17.834Z,79.79
2017-07-02T09:23:50.155Z,79.88
2017-07-02T09:26:22.901Z,80.25
2017-07-02T09:28:55.005Z,80.36
2017-07-02T09:31:27.316Z,80.55
2017-07-02T09:34:00.121Z,81.28
2017-07-02T09:36:32.097Z,82.16
2017-07-02T09:39:04.454Z,82.31
2017-07-02T09:41:36.963Z,82.98
2017-07-02T09:44:09.227Z,83.28
2017-07-02T09:46:41.779Z,84.18
2017-07-02T09:49:14.075Z,85.21
2017-07-02T09:51:46.549Z,85.52
2017-07-02T09:54:18.896Z,86.46
2017-07-02T09:56:51.290Z,87.09
2017-07-02T09:59:23.577Z,87.34
2017-07-02T10:01:55.940Z,87.38
2017-07-02T10:04:28.317Z,87.31
2017-07-02T10:07:00.609Z,87.40
2017-07-02T10:09:33.823Z,88.13
2017-07-02T10:12:06.453Z,88.62
2017-07-02T10:14:39.949Z,88.68
2017-07-02T10:17:12.339Z,89.10
2017-07-02T10:19:44.701Z,89.45
2017-07-02T10:22:17.185Z,89.30
2017-07-02T10:24:50.587Z,89.20
2017-07-02T10:27:23.893Z,89.06
2017-07-02T10:29:56.416Z,89.38
2017-07-02T10:32:28.940Z,89.81
2017-07-02T10:35:01.256Z,89.83
2017-07-02T10:37:33.789Z,90.07
2017-07-02T10:40:06.073Z,89.59
2017-07-02T10:42:38.537Z,89.39
2017-07-02T10:45:10.880Z,88.98
2017-07-02T10:47:43.264Z,89.68
2017-07-02T10:50:15.617Z,89.12
2017-07-02T10:52:47.919Z,89.14
2017-07-02T10:55:20.272Z,89.14
2017-07-02T10:57:52.657Z,89.68
2017-07-02T11:00:25.157Z,89.31
2017-07-02T11:02:57.573Z,90.09
2017-07-02T11:05:29.945Z,89.91
2017-07-02T11:08:02.257Z,90.02
2017-07-02T11:10:34.854Z,89.14
2017-07-02T11:13:07.302Z,88.84
2017-07-02T11:15:39.536Z,88.10
2017-07-02T11:18:11.857Z,87.09
2017-07-02T11:20:44.344Z,85.91
2017-07-02T11:23:16.755Z,84.00
2017-07-02T11:25:49.092Z,82.87
2017-07-02T11:28:21.558Z,82.88
2017-07-02T11:30:53.944Z,81.48
2017-07-02T11:33:26.265Z,79.77
2017-07-02T11:35:58.856Z,78.62
2017-07-02T11:38:31.158Z,77.03
2017-07-02T11:41:03.887Z,75.95
2017-07-02T11:43:36.041Z,75.38
2017-07-02T11:46:08.366Z,74.63
2017-07-02T11:48:40.728Z,75.13
2017-07-02T11:51:13.101Z,74.20
2017-07-02T11:53:46.344Z,74.62
2017-07-02T11:56:19.213Z,74.72
2017-07-02T11:58:51.177Z,74.05
2017-07-02T12:01:23.613Z,73.73
2017-07-02T12:03:56.009Z,74.29
2017-07-02T12:06:28.312Z,75.08
2017-07-02T12:09:00.657Z,73.30
2017-07-02T12:11:33.315Z,73.55
2017-07-02T12:14:05.889Z,72.48
2017-07-02T12:16:37.896Z,71.59
2017-07-02T12:19:10.157Z,71.00
2017-07-02T12:21:42.464Z,71.31
2017-07-02T12:24:14.828Z,70.89
2017-07-02T12:26:47.239Z,71.06
2017-07-02T12:29:20.612Z,70.27
2017-07-02T12:31:53.000Z,69.00
2017-07-02T12:34:25.599Z,69.18
2017-07-02T12:36:57.860Z,68.56
2017-07-02T12:39:30.252Z,68.76
2017-07-02T12:42:02.773Z,68.28
2017-07-02T12:44:35.141Z,66.44
2017-07-02T12:47:07.615Z,65.46
2017-07-02T12:49:39.971Z,66.00
2017-07-02T12:52:12.339Z,64.89
2017-07-02T12:54:44.712Z,63.71
2017-07-02T12:57:17.090Z,62.69
2017-07-02T12:59:49.343Z,63.65
2017-07-02T13:02:21.688Z,62.37
2017-07-02T13:04:54.207Z,58.44
2017-07-02T13:07:26.661Z,59.63
2017-07-02T13:09:59.035Z,60.71
2017-07-02T13:12:31.280Z,60.28
2017-07-02T13:15:05.178Z,62.13
2017-07-02T13:17:38.006Z,63.36
2017-07-02T13:20:10.312Z,63.39
2017-07-02T13:22:42.716Z,63.57
2017-07-02T13:25:15.116Z,63.97
2017-07-02T13:27:47.565Z,63.76
2017-07-02T13:30:19.901Z,66.41
2017-07-02T13:32:52.270Z,61.37
2017-07-02T13:35:24.660Z,60.48
2017-07-02T13:37:57.953Z,60.25
2017-07-02T13:40:30.468Z,58.85
2017-07-02T13:43:02.864Z,57.09
2017-07-02T13:45:35.178Z,55.71
2017-07-02T13:48:07.532Z,54.24
2017-07-02T13:50:39.929Z,51.19
2017-07-02T13:53:12.284Z,51.44
2017-07-02T13:55:44.731Z,50.74
2017-07-02T13:58:17.121Z,51.59
2017-07-02T14:00:49.471Z,50.29
2017-07-02T14:03:21.847Z,49.66
2017-07-02T14:05:54.345Z,51.71
2017-07-02T14:08:26.617Z,49.97
2017-07-02T14:10:59.267Z,49.75
2017-07-02T14:13:31.644Z,48.08
2017-07-02T14:16:04.683Z,48.24
2017-07-02T14:18:37.105Z,47.69
2017-07-02T14:21:09.449Z,48.13
2017-07-02T14:23:41.840Z,47.91
2017-07-02T14:26:14.559Z,48.70
2017-07-02T14:28:46.636Z,50.94
2017-07-02T14:31:19.059Z,51.45
2017-07-02T14:33:51.778Z,49.75
2017-07-02T14:36:23.741Z,49.46
2017-07-02T14:38:56.177Z,48.00
2017-07-02T14:41:28.516Z,48.90
2017-07-02T14:44:00.865Z,48.62
2017-07-02T14:46:33.243Z,48.44
2017-07-02T14:49:05.587Z,47.84
2017-07-02T14:51:38.079Z,48.89
2017-07-02T14:54:10.325Z,47.53
2017-07-02T14:56:42.636Z,47.38
2017-07-02T14:59:15.058Z,48.44
2017-07-02T15:02:02.299Z,48.17
2017-07-02T15:04:35.092Z,46.45
2017-07-02T15:07:07.526Z,48.33
2017-07-02T15:09:40.041Z,46.68
2017-07-02T15:12:12.356Z,45.60
2017-07-02T15:14:45.207Z,46.65
2017-07-02T15:17:19.306Z,46.15
2017-07-02T15:19:53.188Z,45.57
2017-07-02T15:22:26.999Z,46.32
2017-07-02T15:24:59.793Z,46.37
2017-07-02T15:27:32.591Z,45.84
2017-07-02T15:30:04.649Z,43.23
2017-07-02T15:32:38.091Z,44.85
2017-07-02T15:35:10.446Z,44.85
2017-07-02T15:37:42.882Z,43.51
2017-07-02T15:40:15.225Z,44.50
2017-07-02T15:42:47.573Z,44.85
2017-07-02T15:45:19.916Z,42.47
2017-07-02T15:47:52.996Z,44.75
2017-07-02T15:50:26.681Z,43.57
2017-07-02T15:52:59.216Z,43.14
2017-07-02T15:55:31.504Z,42.59
2017-07-02T15:58:03.992Z,42.72
2017-07-02T16:00:36.201Z,42.36
2017-07-02T16:03:08.997Z,43.84
2017-07-02T16:05:41.196Z,43.86
2017-07-02T16:08:13.659Z,43.29
2017-07-02T16:10:45.936Z,43.03
2017-07-02T16:13:18.394Z,43.08
2017-07-02T16:15:50.844Z,45.35
2017-07-02T16:18:23.180Z,44.68
2017-07-02T16:20:55.700Z,45.97
2017-07-02T16:23:29.112Z,45.50
2017-07-02T16:26:01.465Z,45.70
2017-07-02T16:28:33.940Z,45.07
2017-07-02T16:31:06.384Z,44.41
2017-07-02T16:33:39.075Z,45.26
2017-07-02T16:36:10.968Z,45.05
2017-07-02T16:38:43.507Z,46.14
2017-07-02T16:41:15.681Z,45.71
2017-07-02T16:43:48.068Z,46.23
2017-07-02T16:46:20.461Z,48.02
2017-07-02T16:48:53.805Z,48.54
2017-07-02T16:51:26.436Z,48.20
2017-07-02T16:53:58.744Z,49.24
2017-07-02T16:56:31.195Z,50.24
2017-07-02T16:59:03.669Z,51.12
2017-07-02T17:01:36.225Z,50.98
2017-07-02T17:04:08.603Z,51.15
2017-07-02T17:06:40.942Z,51.63
2017-07-02T17:09:13.341Z,52.20
2017-07-02T17:11:45.690Z,52.97
2017-07-02T17:14:18.132Z,52.16
2017-07-02T17:16:51.051Z,52.46
2017-07-02T17:19:22.787Z,51.14
2017-07-02T17:21:55.185Z,51.46
2017-07-02T17:24:27.715Z,51.62
2017-07-02T17:27:00.012Z,51.36
2017-07-02T17:29:32.692Z,51.64
2017-07-02T17:32:04.678Z,52.30
2017-07-02T17:34:37.488Z,52.83
2017-07-02T17:37:09.634Z,53.95
2017-07-02T17:39:42.367Z,54.59
2017-07-02T17:42:14.314Z,55.34
2017-07-02T17:44:46.656Z,56.20
2017-07-02T17:47:19.101Z,56.94
2017-07-02T17:49:51.377Z,57.02
2017-07-02T17:52:24.252Z,57.53
2017-07-02T17:54:56.115Z,57.52
2017-07-02T17:57:28.557Z,57.19
2017-07-02T18:00:00.944Z,57.53
2017-07-02T18:02:33.237Z,56.03
2017-07-02T18:05:05.524Z,57.26
2017-07-02T18:07:38.436Z,57.20
2017-07-02T18:10:10.556Z,57.67
2017-07-02T18:12:42.906Z,58.20
2017-07-02T18:15:15.340Z,58.28
2017-07-02T18:17:48.198Z,58.44
2017-07-02T18:20:20.263Z,58.60
2017-07-02T18:22:52.583Z,59.10
2017-07-02T18:25:26.630Z,59.15
2017-07-02T18:27:59.364Z,59.10
2017-07-02T18:30:31.685Z,59.05
2017-07-02T18:33:04.126Z,59.62
2017-07-02T18:35:36.673Z,59.60
2017-07-02T18:38:09.205Z,59.61
2017-07-02T18:40:41.779Z,60.34
2017-07-02T18:43:13.864Z,60.79
2017-07-02T18:45:46.544Z,61.04
2017-07-02T18:48:18.951Z,61.53
2017-07-02T18:50:51.355Z,62.08
2017-07-02T18:53:23.724Z,62.25
2017-07-02T18:55:56.146Z,62.85
2017-07-02T18:58:28.482Z,62.85
2017-07-02T19:01:00.847Z,63.38
2017-07-02T19:03:33.264Z,63.01
2017-07-02T19:06:05.631Z,63.84
2017-07-02T19:08:39.628Z,63.87
2017-07-02T19:11:11.445Z,64.09
2017-07-02T19:13:43.964Z,64.81
2017-07-02T19:16:16.400Z,64.13
2017-07-02T19:18:49.852Z,65.28
2017-07-02T19:21:22.428Z,65.68
2017-07-02T19:23:54.638Z,65.51
2017-07-02T19:26:27.185Z,66.42
2017-07-02T19:28:59.521Z,66.61
2017-07-02T19:31:33.026Z,66.86
2017-07-02T19:34:05.430Z,66.74
2017-07-02T19:36:37.873Z,66.84
2017-07-02T19:39:10.232Z,67.00
2017-07-02T19:41:43.139Z,66.77
2017-07-02T19:44:16.333Z,66.28
2017-07-02T19:46:49.020Z,64.70
2017-07-02T19:49:21.076Z,64.58
2017-07-02T19:51:53.556Z,64.79
2017-07-02T19:54:26.109Z,64.24
2017-07-02T19:56:58.547Z,64.56
2017-07-02T19:59:30.945Z,64.71
2017-07-02T20:02:03.392Z,65.48
2017-07-02T20:04:35.737Z,65.39
2017-07-02T20:07:08.216Z,65.45
2017-07-02T20:09:40.577Z,65.48
2017-07-02T20:12:13.080Z,65.75
2017-07-02T20:14:45.459Z,66.28
2017-07-02T20:17:17.817Z,65.85
2017-07-02T20:19:50.184Z,65.76
2017-07-02T20:22:22.672Z,66.17
2017-07-02T20:24:55.026Z,66.37
2017-07-02T20:27:27.420Z,66.43
2017-07-02T20:29:59.840Z,67.13
2017-07-02T20:32:32.377Z,67.36
2017-07-02T20:35:04.834Z,67.84
2017-07-02T20:37:37.051Z,67.94
2017-07-02T20:40:09.478Z,68.11
2017-07-02T20:42:41.817Z,68.73
2017-07-02T20:45:14.345Z,68.91
2017-07-02T20:47:46.825Z,69.45
2017-07-02T20:50:19.108Z,70.53
2017-07-02T20:52:51.528Z,70.60
2017-07-02T20:55:23.977Z,70.59
2017-07-02T20:57:56.305Z,70.62
2017-07-02T21:00:28.633Z,70.63
2017-07-02T21:03:01.066Z,70.32
2017-07-02T21:05:33.508Z,70.69
2017-07-02T21:08:06.163Z,70.53
2017-07-02T21:10:39.204Z,70.29
2017-07-02T21:13:11.760Z,69.93
2017-07-02T21:15:44.297Z,69.98
2017-07-02T21:18:17.531Z,69.77
2017-07-02T21:20:50.085Z,69.75
2017-07-02T21:23:22.537Z,69.90
2017-07-02T21:25:54.868Z,70.08
2017-07-02T21:28:27.351Z,69.67
2017-07-02T21:30:59.907Z,69.70
2017-07-02T21:33:32.088Z,69.74
2017-07-02T21:36:04.450Z,69.79
2017-07-02T21:38:37.715Z,70.16
2017-07-02T21:41:10.088Z,69.94
2017-07-02T21:43:42.524Z,69.84
2017-07-02T21:46:15.583Z,70.05
2017-07-02T21:48:48.301Z,70.74
2017-07-02T21:51:20.949Z,71.44
2017-07-02T21:53:53.087Z,71.93
2017-07-02T21:56:25.455Z,71.85
2017-07-02T21:58:57.984Z,71.93
2017-07-02T22:01:30.328Z,71.64
2017-07-02T22:04:02.708Z,72.44
2017-07-02T22:06:35.033Z,72.49
2017-07-02T22:09:07.493Z,71.66
2017-07-02T22:11:39.792Z,71.83
2017-07-02T22:14:12.237Z,71.18
2017-07-02T22:16:44.672Z,71.96
2017-07-02T22:19:16.985Z,72.11
2017-07-02T22:21:49.405Z,72.50
2017-07-02T22:24:21.818Z,70.55
2017-07-02T22:26:54.181Z,70.01
2017-07-02T22:29:26.856Z,70.29
2017-07-02T22:31:59.053Z,69.68
2017-07-02T22:34:31.520Z,69.64
2017-07-02T22:37:03.972Z,69.92
2017-07-02T22:39:36.417Z,70.14
2017-07-02T22:42:08.755Z,69.77
2017-07-02T22:44:41.901Z,69.98
2017-07-02T22:47:14.797Z,69.77
2017-07-02T22:49:46.945Z,70.16
2017-07-02T22:52:19.654Z,70.52
2017-07-02T22:54:52.805Z,70.59
2017-07-02T22:57:25.126Z,71.02
2017-07-02T22:59:57.925Z,71.25
2017-07-02T23:02:29.875Z,71.83
2017-07-02T23:05:02.268Z,72.37
2017-07-02T23:07:34.620Z,72.90
2017-07-02T23:10:06.988Z,73.97
2017-07-02T23:12:39.443Z,74.15
2017-07-02T23:15:11.960Z,73.99
2017-07-02T23:17:44.169Z,74.16
2017-07-02T23:20:16.586Z,74.24
2017-07-02T23:22:48.925Z,74.60
2017-07-02T23:25:21.269Z,74.52
2017-07-02T23:27:53.617Z,74.82
2017-07-02T23:30:25.992Z,76.52
2017-07-02T23:32:58.371Z,75.92
2017-07-02T23:35:30.823Z,75.76
2017-07-02T23:38:03.205Z,75.95
2017-07-02T23:40:35.519Z,77.58
2017-07-02T23:43:07.921Z,77.85
2017-07-02T23:45:40.397Z,77.35
2017-07-02T23:48:12.681Z,77.27
2017-07-02T23:50:45.176Z,78.64
2017-07-02T23:53:17.478Z,78.46
2017-07-02T23:55:49.821Z,77.97
2017-07-02T23:58:22.098Z,80.69
